sensor_id;sensor_type;location;lat;lon;timestamp;pressure;altitude;pressure_sealevel;temperature;humidity
21276;BME280;36472;52.170;20.884;2023-03-01T00:01:56;101841.81;;;-0.74;73.08
21276;BME280;36472;52.170;20.884;2023-03-01T00:04:25;101840.09;;;-0.73;72.70
21276;BME280;36472;52.170;20.884;2023-03-01T00:06:55;101829.75;;;-0.73;73.05
21276;BME280;36472;52.170;20.884;2023-03-01T00:09:24;101834.06;;;-0.74;73.15
21276;BME280;36472;52.170;20.884;2023-03-01T00:11:53;101829.75;;;-0.73;73.21
21276;BME280;36472;52.170;20.884;2023-03-01T00:14:22;101834.94;;;-0.70;73.31
21276;BME280;36472;52.170;20.884;2023-03-01T00:16:53;101825.50;;;-0.71;73.41
21276;BME280;36472;52.170;20.884;2023-03-01T00:19:22;101824.59;;;-0.73;73.62
21276;BME280;36472;52.170;20.884;2023-03-01T00:21:51;101826.34;;;-0.72;73.47
21276;BME280;36472;52.170;20.884;2023-03-01T00:24:20;101824.63;;;-0.70;73.67
21276;BME280;36472;52.170;20.884;2023-03-01T00:26:52;101833.22;;;-0.68;74.00
21276;BME280;36472;52.170;20.884;2023-03-01T00:29:23;101831.53;;;-0.69;74.08
21276;BME280;36472;52.170;20.884;2023-03-01T00:31:54;101831.53;;;-0.68;74.11
21276;BME280;36472;52.170;20.884;2023-03-01T00:34:22;101829.78;;;-0.69;73.88
21276;BME280;36472;52.170;20.884;2023-03-01T00:36:52;101814.28;;;-0.70;73.11
21276;BME280;36472;52.170;20.884;2023-03-01T00:39:20;101810.88;;;-0.69;73.31
21276;BME280;36472;52.170;20.884;2023-03-01T00:41:49;101803.97;;;-0.70;73.22
21276;BME280;36472;52.170;20.884;2023-03-01T00:44:18;101805.72;;;-0.68;72.72
21276;BME280;36472;52.170;20.884;2023-03-01T00:46:47;101813.44;;;-0.69;73.04
21276;BME280;36472;52.170;20.884;2023-03-01T00:49:18;101800.53;;;-0.72;73.04
21276;BME280;36472;52.170;20.884;2023-03-01T00:51:47;101801.38;;;-0.70;73.48
21276;BME280;36472;52.170;20.884;2023-03-01T00:54:16;101800.53;;;-0.72;73.06
21276;BME280;36472;52.170;20.884;2023-03-01T00:56:45;101796.22;;;-0.69;72.93
21276;BME280;36472;52.170;20.884;2023-03-01T00:59:14;101787.63;;;-0.68;73.25
21276;BME280;36472;52.170;20.884;2023-03-01T01:01:43;101793.66;;;-0.69;73.55
21276;BME280;36472;52.170;20.884;2023-03-01T01:04:13;101794.50;;;-0.67;73.26
21276;BME280;36472;52.170;20.884;2023-03-01T01:06:46;101787.63;;;-0.69;73.44
21276;BME280;36472;52.170;20.884;2023-03-01T01:09:17;101791.91;;;-0.68;73.50
21276;BME280;36472;52.170;20.884;2023-03-01T01:11:49;101782.47;;;-0.68;73.44
21276;BME280;36472;52.170;20.884;2023-03-01T01:14:19;101796.22;;;-0.69;73.52
21276;BME280;36472;52.170;20.884;2023-03-01T01:16:49;101784.19;;;-0.70;73.04
21276;BME280;36472;52.170;20.884;2023-03-01T01:19:18;101784.19;;;-0.73;73.51
21276;BME280;36472;52.170;20.884;2023-03-01T01:21:50;101781.59;;;-0.74;73.49
21276;BME280;36472;52.170;20.884;2023-03-01T01:24:19;101772.97;;;-0.77;73.66
21276;BME280;36472;52.170;20.884;2023-03-01T01:26:49;101774.69;;;-0.76;73.94
21276;BME280;36472;52.170;20.884;2023-03-01T01:29:18;101771.25;;;-0.78;73.63
21276;BME280;36472;52.170;20.884;2023-03-01T01:31:47;101759.19;;;-0.77;73.66
21276;BME280;36472;52.170;20.884;2023-03-01T01:34:19;101761.78;;;-0.74;73.53
21276;BME280;36472;52.170;20.884;2023-03-01T01:36:53;101760.94;;;-0.74;73.22
21276;BME280;36472;52.170;20.884;2023-03-01T01:39:22;101756.63;;;-0.74;73.34
21276;BME280;36472;52.170;20.884;2023-03-01T01:41:51;101760.06;;;-0.72;73.56
21276;BME280;36472;52.170;20.884;2023-03-01T01:44:23;101760.94;;;-0.71;73.52
21276;BME280;36472;52.170;20.884;2023-03-01T01:46:57;101766.97;;;-0.71;73.52
21276;BME280;36472;52.170;20.884;2023-03-01T01:49:33;101762.66;;;-0.70;73.65
21276;BME280;36472;52.170;20.884;2023-03-01T01:52:12;101738.53;;;-0.82;74.22
21276;BME280;36472;52.170;20.884;2023-03-01T01:54:47;101745.44;;;-0.71;74.03
21276;BME280;36472;52.170;20.884;2023-03-01T01:57:23;101734.25;;;-0.70;73.86
21276;BME280;36472;52.170;20.884;2023-03-01T02:00:01;101745.47;;;-0.70;73.51
21276;BME280;36472;52.170;20.884;2023-03-01T02:02:41;101744.56;;;-0.70;74.35
21276;BME280;36472;52.170;20.884;2023-03-01T02:05:16;101742.00;;;-0.70;74.77
21276;BME280;36472;52.170;20.884;2023-03-01T02:07:48;101746.34;;;-0.65;74.63
21276;BME280;36472;52.170;20.884;2023-03-01T02:10:21;101742.03;;;-0.60;74.63
21276;BME280;36472;52.170;20.884;2023-03-01T02:12:51;101744.59;;;-0.57;74.54
21276;BME280;36472;52.170;20.884;2023-03-01T02:15:21;101748.94;;;-0.51;73.78
21276;BME280;36472;52.170;20.884;2023-03-01T02:17:51;101740.31;;;-0.50;72.77
21276;BME280;36472;52.170;20.884;2023-03-01T02:20:27;101742.06;;;-0.46;72.69
21276;BME280;36472;52.170;20.884;2023-03-01T02:23:03;101740.34;;;-0.47;72.81
21276;BME280;36472;52.170;20.884;2023-03-01T02:25:44;101742.91;;;-0.47;72.25
21276;BME280;36472;52.170;20.884;2023-03-01T02:28:28;101746.38;;;-0.48;72.45
21276;BME280;36472;52.170;20.884;2023-03-01T02:30:58;101736.88;;;-0.53;73.37
21276;BME280;36472;52.170;20.884;2023-03-01T02:33:47;101740.31;;;-0.56;73.69
21276;BME280;36472;52.170;20.884;2023-03-01T02:36:21;101729.13;;;-0.50;73.99
21276;BME280;36472;52.170;20.884;2023-03-01T02:38:57;101732.56;;;-0.51;74.04
21276;BME280;36472;52.170;20.884;2023-03-01T02:41:31;101730.88;;;-0.51;73.08
21276;BME280;36472;52.170;20.884;2023-03-01T02:44:02;101727.44;;;-0.53;73.89
21276;BME280;36472;52.170;20.884;2023-03-01T02:46:31;101723.09;;;-0.54;73.60
21276;BME280;36472;52.170;20.884;2023-03-01T02:49:01;101726.53;;;-0.53;73.22
21276;BME280;36472;52.170;20.884;2023-03-01T02:51:52;101712.78;;;-0.52;73.27
21276;BME280;36472;52.170;20.884;2023-03-01T02:54:29;101716.22;;;-0.55;73.65
21276;BME280;36472;52.170;20.884;2023-03-01T02:57:02;101717.91;;;-0.59;74.19
21276;BME280;36472;52.170;20.884;2023-03-01T02:59:35;101720.50;;;-0.57;74.18
21276;BME280;36472;52.170;20.884;2023-03-01T03:02:20;101723.13;;;-0.51;73.94
21276;BME280;36472;52.170;20.884;2023-03-01T03:05:28;101718.81;;;-0.49;74.35
21276;BME280;36472;52.170;20.884;2023-03-01T03:08:00;101717.09;;;-0.45;74.02
21276;BME280;36472;52.170;20.884;2023-03-01T03:10:36;101700.72;;;-0.41;73.45
21276;BME280;36472;52.170;20.884;2023-03-01T03:13:09;101695.59;;;-0.43;73.45
21276;BME280;36472;52.170;20.884;2023-03-01T03:15:42;101686.97;;;-0.42;73.54
21276;BME280;36472;52.170;20.884;2023-03-01T03:18:15;101695.59;;;-0.43;73.59
21276;BME280;36472;52.170;20.884;2023-03-01T03:20:46;101701.59;;;-0.41;73.43
21276;BME280;36472;52.170;20.884;2023-03-01T03:23:15;101696.44;;;-0.41;73.61
21276;BME280;36472;52.170;20.884;2023-03-01T03:25:44;101690.41;;;-0.43;73.46
21276;BME280;36472;52.170;20.884;2023-03-01T03:28:13;101694.69;;;-0.43;73.94
21276;BME280;36472;52.170;20.884;2023-03-01T03:30:45;101683.53;;;-0.44;74.07
21276;BME280;36472;52.170;20.884;2023-03-01T03:33:14;101680.94;;;-0.45;73.98
21276;BME280;36472;52.170;20.884;2023-03-01T03:35:46;101677.50;;;-0.46;73.41
21276;BME280;36472;52.170;20.884;2023-03-01T03:38:18;101680.91;;;-0.50;73.01
21276;BME280;36472;52.170;20.884;2023-03-01T03:40:58;101675.75;;;-0.56;73.60
21276;BME280;36472;52.170;20.884;2023-03-01T03:43:32;101668.00;;;-0.59;73.83
21276;BME280;36472;52.170;20.884;2023-03-01T03:46:04;101657.69;;;-0.59;74.28
21276;BME280;36472;52.170;20.884;2023-03-01T03:48:35;101657.69;;;-0.56;74.42
21276;BME280;36472;52.170;20.884;2023-03-01T03:51:04;101674.03;;;-0.57;74.18
21276;BME280;36472;52.170;20.884;2023-03-01T03:53:34;101666.28;;;-0.54;74.24
21276;BME280;36472;52.170;20.884;2023-03-01T03:56:04;101674.91;;;-0.47;74.42
21276;BME280;36472;52.170;20.884;2023-03-01T03:58:33;101673.19;;;-0.45;74.29
21276;BME280;36472;52.170;20.884;2023-03-01T04:01:05;101666.28;;;-0.40;74.29
21276;BME280;36472;52.170;20.884;2023-03-01T04:03:34;101655.97;;;-0.39;73.86
21276;BME280;36472;52.170;20.884;2023-03-01T04:06:04;101660.28;;;-0.41;74.16
21276;BME280;36472;52.170;20.884;2023-03-01T04:08:33;101653.38;;;-0.45;73.80
21276;BME280;36472;52.170;20.884;2023-03-01T04:11:05;101655.97;;;-0.42;74.03
21276;BME280;36472;52.170;20.884;2023-03-01T04:13:48;101653.38;;;-0.34;73.93
21276;BME280;36472;52.170;20.884;2023-03-01T04:16:20;101650.78;;;-0.31;73.61
21276;BME280;36472;52.170;20.884;2023-03-01T04:18:49;101650.78;;;-0.31;73.50
21276;BME280;36472;52.170;20.884;2023-03-01T04:21:18;101650.78;;;-0.25;73.14
21276;BME280;36472;52.170;20.884;2023-03-01T04:23:47;101657.69;;;-0.24;73.07
21276;BME280;36472;52.170;20.884;2023-03-01T04:26:20;101664.56;;;-0.23;72.85
21276;BME280;36472;52.170;20.884;2023-03-01T04:28:49;101664.59;;;-0.29;73.15
21276;BME280;36472;52.170;20.884;2023-03-01T04:31:20;101666.28;;;-0.26;73.20
21276;BME280;36472;52.170;20.884;2023-03-01T04:33:52;101660.28;;;-0.24;73.00
21276;BME280;36472;52.170;20.884;2023-03-01T04:36:24;101659.41;;;-0.21;72.66
21276;BME280;36472;52.170;20.884;2023-03-01T04:38:55;101647.38;;;-0.24;72.77
21276;BME280;36472;52.170;20.884;2023-03-01T04:41:25;101654.22;;;-0.20;72.50
21276;BME280;36472;52.170;20.884;2023-03-01T04:43:54;101650.81;;;-0.17;72.67
21276;BME280;36472;52.170;20.884;2023-03-01T04:46:24;101650.78;;;-0.14;72.43
21276;BME280;36472;52.170;20.884;2023-03-01T04:48:53;101643.91;;;-0.12;72.07
21276;BME280;36472;52.170;20.884;2023-03-01T04:51:22;101638.72;;;-0.09;72.26
21276;BME280;36472;52.170;20.884;2023-03-01T04:53:51;101640.44;;;-0.12;72.47
21276;BME280;36472;52.170;20.884;2023-03-01T04:56:20;101634.41;;;-0.14;72.49
21276;BME280;36472;52.170;20.884;2023-03-01T04:58:53;101631.84;;;-0.13;72.70
21276;BME280;36472;52.170;20.884;2023-03-01T05:01:24;101633.53;;;-0.09;72.28
21276;BME280;36472;52.170;20.884;2023-03-01T05:03:52;101636.13;;;-0.10;72.55
21276;BME280;36472;52.170;20.884;2023-03-01T05:06:22;101632.69;;;-0.11;72.42
21276;BME280;36472;52.170;20.884;2023-03-01T05:08:51;101628.38;;;-0.06;71.98
21276;BME280;36472;52.170;20.884;2023-03-01T05:11:20;101624.94;;;-0.02;71.64
21276;BME280;36472;52.170;20.884;2023-03-01T05:13:49;101615.44;;;-0.09;71.74
21276;BME280;36472;52.170;20.884;2023-03-01T05:16:24;101629.22;;;-0.05;71.86
21276;BME280;36472;52.170;20.884;2023-03-01T05:18:52;101619.78;;;-0.05;72.23
21276;BME280;36472;52.170;20.884;2023-03-01T05:21:23;101632.69;;;-0.05;71.83
21276;BME280;36472;52.170;20.884;2023-03-01T05:23:52;101642.16;;;-0.04;72.09
21276;BME280;36472;52.170;20.884;2023-03-01T05:26:22;101637.88;;;-0.03;71.79
21276;BME280;36472;52.170;20.884;2023-03-01T05:28:56;101635.28;;;-0.03;72.04
21276;BME280;36472;52.170;20.884;2023-03-01T05:31:28;101640.44;;;-0.02;72.17
21276;BME280;36472;52.170;20.884;2023-03-01T05:33:58;101643.03;;;-0.03;71.94
21276;BME280;36472;52.170;20.884;2023-03-01T05:36:27;101652.50;;;-0.01;71.70
21276;BME280;36472;52.170;20.884;2023-03-01T05:38:57;101656.81;;;0.02;71.72
21276;BME280;36472;52.170;20.884;2023-03-01T05:41:26;101655.94;;;0.05;71.31
21276;BME280;36472;52.170;20.884;2023-03-01T05:43:55;101663.69;;;0.05;71.55
21276;BME280;36472;52.170;20.884;2023-03-01T05:46:24;101673.19;;;0.10;71.46
21276;BME280;36472;52.170;20.884;2023-03-01T05:48:54;101671.44;;;0.11;71.21
21276;BME280;36472;52.170;20.884;2023-03-01T05:51:23;101665.41;;;0.10;70.97
21276;BME280;36472;52.170;20.884;2023-03-01T05:53:53;101670.56;;;0.15;70.95
21276;BME280;36472;52.170;20.884;2023-03-01T05:56:22;101670.56;;;0.20;70.83
21276;BME280;36472;52.170;20.884;2023-03-01T05:58:51;101662.81;;;0.20;70.81
21276;BME280;36472;52.170;20.884;2023-03-01T06:01:20;101671.41;;;0.22;70.92
21276;BME280;36472;52.170;20.884;2023-03-01T06:03:49;101674.00;;;0.26;70.56
21276;BME280;36472;52.170;20.884;2023-03-01T06:06:19;101674.00;;;0.29;70.63
21276;BME280;36472;52.170;20.884;2023-03-01T06:08:48;101663.63;;;0.32;70.55
21276;BME280;36472;52.170;20.884;2023-03-01T06:11:18;101665.34;;;0.35;70.44
21276;BME280;36472;52.170;20.884;2023-03-01T06:13:47;101674.81;;;0.37;70.09
21276;BME280;36472;52.170;20.884;2023-03-01T06:16:16;101665.34;;;0.38;70.06
21276;BME280;36472;52.170;20.884;2023-03-01T06:18:45;101667.91;;;0.44;70.55
21276;BME280;36472;52.170;20.884;2023-03-01T06:21:14;101679.09;;;0.52;70.43
21276;BME280;36472;52.170;20.884;2023-03-01T06:23:44;101670.47;;;0.57;69.80
21276;BME280;36472;52.170;20.884;2023-03-01T06:26:13;101669.59;;;0.61;69.77
21276;BME280;36472;52.170;20.884;2023-03-01T06:28:42;101671.28;;;0.66;69.66
21276;BME280;36472;52.170;20.884;2023-03-01T06:31:14;101669.53;;;0.70;69.85
21276;BME280;36472;52.170;20.884;2023-03-01T06:33:43;101672.97;;;0.77;69.71
21276;BME280;36472;52.170;20.884;2023-03-01T06:36:12;101665.19;;;0.83;69.96
21276;BME280;36472;52.170;20.884;2023-03-01T06:38:41;101673.78;;;0.94;69.61
21276;BME280;36472;52.170;20.884;2023-03-01T06:41:12;101672.03;;;0.96;69.09
21276;BME280;36472;52.170;20.884;2023-03-01T06:43:41;101674.59;;;0.99;69.14
21276;BME280;36472;52.170;20.884;2023-03-01T06:46:10;101675.47;;;0.97;69.02
21276;BME280;36472;52.170;20.884;2023-03-01T06:48:39;101672.84;;;1.04;69.35
21276;BME280;36472;52.170;20.884;2023-03-01T06:51:08;101659.88;;;1.07;69.41
21276;BME280;36472;52.170;20.884;2023-03-01T06:53:37;101672.81;;;1.10;68.77
21276;BME280;36472;52.170;20.884;2023-03-01T06:56:06;101672.78;;;1.17;69.19
21276;BME280;36472;52.170;20.884;2023-03-01T06:58:36;101662.38;;;1.23;68.76
21276;BME280;36472;52.170;20.884;2023-03-01T07:01:07;101664.06;;;1.30;68.55
21276;BME280;36472;52.170;20.884;2023-03-01T07:03:35;101657.13;;;1.35;68.14
21276;BME280;36472;52.170;20.884;2023-03-01T07:06:05;101665.66;;;1.45;68.16
21276;BME280;36472;52.170;20.884;2023-03-01T07:08:34;101662.22;;;1.47;67.86
21276;BME280;36472;52.170;20.884;2023-03-01T07:11:03;101662.09;;;1.61;68.21
21276;BME280;36472;52.170;20.884;2023-03-01T07:13:33;101669.78;;;1.71;67.13
21276;BME280;36472;52.170;20.884;2023-03-01T07:16:04;101667.16;;;1.78;67.19
21276;BME280;36472;52.170;20.884;2023-03-01T07:18:33;101667.94;;;1.86;66.98
21276;BME280;36472;52.170;20.884;2023-03-01T07:21:06;101669.56;;;1.98;66.24
21276;BME280;36472;52.170;20.884;2023-03-01T07:23:35;101659.09;;;2.08;65.72
21276;BME280;36472;52.170;20.884;2023-03-01T07:26:05;101660.59;;;2.29;65.31
21276;BME280;36472;52.170;20.884;2023-03-01T07:28:34;101662.19;;;2.43;65.33
21276;BME280;36472;52.170;20.884;2023-03-01T07:31:07;101656.03;;;2.51;64.56
21276;BME280;36472;52.170;20.884;2023-03-01T07:33:36;101662.03;;;2.57;63.72
21276;BME280;36472;52.170;20.884;2023-03-01T07:36:06;101648.03;;;2.71;63.70
21276;BME280;36472;52.170;20.884;2023-03-01T07:38:35;101644.47;;;2.78;63.15
21276;BME280;36472;52.170;20.884;2023-03-01T07:41:04;101642.63;;;2.88;63.18
21276;BME280;36472;52.170;20.884;2023-03-01T07:43:34;101637.22;;;3.02;62.60
21276;BME280;36472;52.170;20.884;2023-03-01T07:46:04;101631.06;;;3.09;62.38
21276;BME280;36472;52.170;20.884;2023-03-01T07:48:35;101636.94;;;3.22;61.59
21276;BME280;36472;52.170;20.884;2023-03-01T07:51:06;101637.72;;;3.27;61.52
21276;BME280;36472;52.170;20.884;2023-03-01T07:53:35;101640.31;;;3.28;61.04
21276;BME280;36472;52.170;20.884;2023-03-01T07:56:07;101641.88;;;3.40;60.79
21276;BME280;36472;52.170;20.884;2023-03-01T07:58:39;101641.66;;;3.52;60.60
21276;BME280;36472;52.170;20.884;2023-03-01T08:01:10;101642.44;;;3.59;59.57
21276;BME280;36472;52.170;20.884;2023-03-01T08:03:42;101632.69;;;3.70;59.51
21276;BME280;36472;52.170;20.884;2023-03-01T08:06:14;101643.72;;;3.86;59.24
21276;BME280;36472;52.170;20.884;2023-03-01T08:08:44;101651.38;;;3.92;59.08
21276;BME280;36472;52.170;20.884;2023-03-01T08:11:14;101650.31;;;4.04;59.21
21276;BME280;36472;52.170;20.884;2023-03-01T08:13:46;101642.34;;;4.15;58.58
21276;BME280;36472;52.170;20.884;2023-03-01T08:16:19;101638.66;;;4.25;58.42
21276;BME280;36472;52.170;20.884;2023-03-01T08:18:49;101646.25;;;4.36;57.24
21276;BME280;36472;52.170;20.884;2023-03-01T08:21:19;101647.06;;;4.38;56.82
21276;BME280;36472;52.170;20.884;2023-03-01T08:23:48;101650.94;;;4.62;57.24
21276;BME280;36472;52.170;20.884;2023-03-01T08:26:19;101650.53;;;4.82;56.79
21276;BME280;36472;52.170;20.884;2023-03-01T08:28:49;101639.53;;;5.09;56.08
21276;BME280;36472;52.170;20.884;2023-03-01T08:31:21;101639.03;;;5.30;55.11
21276;BME280;36472;52.170;20.884;2023-03-01T08:33:56;101637.59;;;5.54;54.67
21276;BME280;36472;52.170;20.884;2023-03-01T08:36:28;101639.38;;;5.52;53.42
21276;BME280;36472;52.170;20.884;2023-03-01T08:38:58;101642.53;;;5.65;53.57
21276;BME280;36472;52.170;20.884;2023-03-01T08:41:27;101643.13;;;5.76;53.46
21276;BME280;36472;52.170;20.884;2023-03-01T08:43:57;101638.63;;;5.83;53.37
21276;BME280;36472;52.170;20.884;2023-03-01T08:46:28;101635.16;;;5.83;52.92
21276;BME280;36472;52.170;20.884;2023-03-01T08:49:00;101635.75;;;5.92;53.31
21276;BME280;36472;52.170;20.884;2023-03-01T08:51:32;101637.72;;;5.84;53.12
21276;BME280;36472;52.170;20.884;2023-03-01T08:54:05;101641.94;;;5.90;53.67
21276;BME280;36472;52.170;20.884;2023-03-01T08:56:34;101647.47;;;6.12;53.51
21276;BME280;36472;52.170;20.884;2023-03-01T08:59:03;101651.81;;;6.11;52.54
21276;BME280;36472;52.170;20.884;2023-03-01T09:01:32;101643.03;;;6.15;52.97
21276;BME280;36472;52.170;20.884;2023-03-01T09:04:03;101650.78;;;6.18;52.46
21276;BME280;36472;52.170;20.884;2023-03-01T09:06:33;101654.94;;;6.26;52.65
21276;BME280;36472;52.170;20.884;2023-03-01T09:09:04;101649.09;;;6.47;52.60
21276;BME280;36472;52.170;20.884;2023-03-01T09:11:34;101650.44;;;6.62;52.51
21276;BME280;36472;52.170;20.884;2023-03-01T09:14:05;101634.19;;;6.82;52.00
21276;BME280;36472;52.170;20.884;2023-03-01T09:16:35;101638.47;;;7.13;51.21
21276;BME280;36472;52.170;20.884;2023-03-01T09:19:05;101645.59;;;7.36;50.85
21276;BME280;36472;52.170;20.884;2023-03-01T09:21:34;101642.13;;;7.89;49.99
21276;BME280;36472;52.170;20.884;2023-03-01T09:24:13;101652.78;;;8.33;48.41
21276;BME280;36472;52.170;20.884;2023-03-01T09:26:43;101653.19;;;8.48;47.85
21276;BME280;36472;52.170;20.884;2023-03-01T09:29:16;101641.56;;;8.78;47.29
21276;BME280;36472;52.170;20.884;2023-03-01T09:31:45;101633.66;;;9.02;47.08
21276;BME280;36472;52.170;20.884;2023-03-01T09:34:16;101631.84;;;9.26;46.76
21276;BME280;36472;52.170;20.884;2023-03-01T09:36:50;101626.59;;;9.26;46.18
21276;BME280;36472;52.170;20.884;2023-03-01T09:39:20;101630.44;;;8.95;46.29
21276;BME280;36472;52.170;20.884;2023-03-01T09:41:58;101636.16;;;8.59;47.29
21276;BME280;36472;52.170;20.884;2023-03-01T09:44:38;101630.88;;;8.36;48.16
21276;BME280;36472;52.170;20.884;2023-03-01T09:47:17;101637.81;;;8.37;48.35
21276;BME280;36472;52.170;20.884;2023-03-01T09:49:58;101616.78;;;8.38;48.39
21276;BME280;36472;52.170;20.884;2023-03-01T09:52:38;101610.97;;;8.55;48.17
21276;BME280;36472;52.170;20.884;2023-03-01T09:55:13;101606.94;;;8.92;47.77
21276;BME280;36472;52.170;20.884;2023-03-01T09:57:50;101609.09;;;9.47;46.28
21276;BME280;36472;52.170;20.884;2023-03-01T10:00:31;101605.91;;;9.82;45.67
21276;BME280;36472;52.170;20.884;2023-03-01T10:03:14;101611.13;;;10.43;44.47
21276;BME280;36472;52.170;20.884;2023-03-01T10:05:58;101594.50;;;10.81;43.44
21276;BME280;36472;52.170;20.884;2023-03-01T10:08:40;101594.09;;;11.62;42.64
21276;BME280;36472;52.170;20.884;2023-03-01T10:11:21;101595.47;;;12.04;41.11
21276;BME280;36472;52.170;20.884;2023-03-01T10:14:01;101596.84;;;12.44;40.22
21276;BME280;36472;52.170;20.884;2023-03-01T10:16:43;101583.50;;;12.95;39.47
21276;BME280;36472;52.170;20.884;2023-03-01T10:19:25;101571.09;;;13.43;38.73
21276;BME280;36472;52.170;20.884;2023-03-01T10:22:03;101568.72;;;13.83;38.27
21276;BME280;36472;52.170;20.884;2023-03-01T10:24:36;101564.97;;;14.16;37.09
21276;BME280;36472;52.170;20.884;2023-03-01T10:27:13;101565.97;;;14.14;37.11
21276;BME280;36472;52.170;20.884;2023-03-01T10:29:52;101565.72;;;14.18;36.73
21276;BME280;36472;52.170;20.884;2023-03-01T10:32:24;101564.16;;;14.43;36.84
21276;BME280;36472;52.170;20.884;2023-03-01T10:34:53;101560.00;;;14.68;36.32
21276;BME280;36472;52.170;20.884;2023-03-01T10:37:24;101565.94;;;14.71;36.24
21276;BME280;36472;52.170;20.884;2023-03-01T10:39:58;101567.72;;;14.56;36.16
21276;BME280;36472;52.170;20.884;2023-03-01T10:42:30;101561.13;;;14.78;35.92
21276;BME280;36472;52.170;20.884;2023-03-01T10:45:19;101562.31;;;15.27;35.18
21276;BME280;36472;52.170;20.884;2023-03-01T10:48:06;101559.53;;;15.68;34.78
21276;BME280;36472;52.170;20.884;2023-03-01T10:50:40;101561.91;;;15.99;34.39
21276;BME280;36472;52.170;20.884;2023-03-01T10:53:28;101566.13;;;16.27;33.57
21276;BME280;36472;52.170;20.884;2023-03-01T10:56:02;101550.53;;;16.96;32.87
21276;BME280;36472;52.170;20.884;2023-03-01T10:58:33;101555.78;;;17.45;31.87
21276;BME280;36472;52.170;20.884;2023-03-01T11:01:05;101552.50;;;17.99;31.80
21276;BME280;36472;52.170;20.884;2023-03-01T11:03:37;101551.28;;;18.03;30.98
21276;BME280;36472;52.170;20.884;2023-03-01T11:06:21;101554.66;;;18.39;30.60
21276;BME280;36472;52.170;20.884;2023-03-01T11:08:52;101553.59;;;18.42;30.55
21276;BME280;36472;52.170;20.884;2023-03-01T11:11:31;101540.06;;;18.77;29.99
21276;BME280;36472;52.170;20.884;2023-03-01T11:14:06;101543.09;;;18.84;29.69
21276;BME280;36472;52.170;20.884;2023-03-01T11:17:01;101547.25;;;19.72;28.90
21276;BME280;36472;52.170;20.884;2023-03-01T11:19:32;101545.94;;;19.88;28.26
21276;BME280;36472;52.170;20.884;2023-03-01T11:22:10;101547.22;;;20.74;27.51
21276;BME280;36472;52.170;20.884;2023-03-01T11:24:46;101540.56;;;21.76;26.57
21276;BME280;36472;52.170;20.884;2023-03-01T11:27:40;101534.00;;;22.26;25.91
21276;BME280;36472;52.170;20.884;2023-03-01T11:30:18;101530.66;;;22.70;24.80
21276;BME280;36472;52.170;20.884;2023-03-01T11:33:03;101520.56;;;22.64;25.08
21276;BME280;36472;52.170;20.884;2023-03-01T11:35:37;101517.81;;;23.09;24.63
21276;BME280;36472;52.170;20.884;2023-03-01T11:38:21;101520.69;;;23.34;24.25
21276;BME280;36472;52.170;20.884;2023-03-01T11:40:59;101519.94;;;23.24;24.55
21276;BME280;36472;52.170;20.884;2023-03-01T11:43:42;101525.31;;;23.06;24.26
21276;BME280;36472;52.170;20.884;2023-03-01T11:46:44;101522.06;;;23.02;24.53
21276;BME280;36472;52.170;20.884;2023-03-01T11:52:46;101523.72;;;21.37;26.39
21276;BME280;36472;52.170;20.884;2023-03-01T11:55:45;101528.06;;;21.95;25.86
21276;BME280;36472;52.170;20.884;2023-03-01T11:58:58;101522.38;;;22.99;24.45
21276;BME280;36472;52.170;20.884;2023-03-01T12:01:48;101525.50;;;23.30;24.01
21276;BME280;36472;52.170;20.884;2023-03-01T12:04:47;101523.13;;;23.53;23.57
21276;BME280;36472;52.170;20.884;2023-03-01T12:07:32;101515.31;;;23.86;23.75
21276;BME280;36472;52.170;20.884;2023-03-01T12:10:23;101512.94;;;25.01;22.77
21276;BME280;36472;52.170;20.884;2023-03-01T12:13:18;101513.25;;;25.48;21.86
21276;BME280;36472;52.170;20.884;2023-03-01T12:16:20;101512.44;;;25.31;22.09
21276;BME280;36472;52.170;20.884;2023-03-01T12:19:30;101513.56;;;25.45;22.03
21276;BME280;36472;52.170;20.884;2023-03-01T12:22:23;101512.47;;;25.95;21.54
21276;BME280;36472;52.170;20.884;2023-03-01T12:25:18;101509.06;;;26.01;21.63
21276;BME280;36472;52.170;20.884;2023-03-01T12:28:19;101511.06;;;26.07;21.49
21276;BME280;36472;52.170;20.884;2023-03-01T12:31:13;101510.38;;;24.83;22.43
21276;BME280;36472;52.170;20.884;2023-03-01T12:33:57;101511.19;;;22.22;25.00
21276;BME280;36472;52.170;20.884;2023-03-01T12:37:04;101497.50;;;18.66;29.28
21276;BME280;36472;52.170;20.884;2023-03-01T12:39:54;101497.31;;;16.13;33.09
21276;BME280;36472;52.170;20.884;2023-03-01T12:42:37;101495.06;;;14.35;36.27
21276;BME280;36472;52.170;20.884;2023-03-01T12:45:35;101495.81;;;13.36;38.99
21276;BME280;36472;52.170;20.884;2023-03-01T12:48:32;101494.09;;;12.43;40.51
21276;BME280;36472;52.170;20.884;2023-03-01T12:51:08;101490.25;;;11.83;41.88
21276;BME280;36472;52.170;20.884;2023-03-01T12:53:43;101484.84;;;11.35;43.33
21276;BME280;36472;52.170;20.884;2023-03-01T12:56:19;101476.97;;;11.00;44.16
21276;BME280;36472;52.170;20.884;2023-03-01T12:59:01;101478.56;;;10.68;45.40
21276;BME280;36472;52.170;20.884;2023-03-01T13:01:42;101471.06;;;10.41;45.92
21276;BME280;36472;52.170;20.884;2023-03-01T13:04:35;101468.97;;;10.29;46.62
21276;BME280;36472;52.170;20.884;2023-03-01T13:07:23;101473.22;;;10.13;47.31
21276;BME280;36472;52.170;20.884;2023-03-01T13:10:09;101474.16;;;9.92;48.56
21276;BME280;36472;52.170;20.884;2023-03-01T13:12:52;101473.63;;;9.65;48.95
21276;BME280;36472;52.170;20.884;2023-03-01T13:15:27;101467.88;;;9.57;49.40
21276;BME280;36472;52.170;20.884;2023-03-01T13:17:58;101467.88;;;9.57;49.83
21276;BME280;36472;52.170;20.884;2023-03-01T13:20:44;101463.28;;;9.42;49.79
21276;BME280;36472;52.170;20.884;2023-03-01T13:23:26;101462.69;;;9.35;50.51